PWSweather.com
Personal Weather Stations
Station Observations
MAKAWAOWX1
Up Country Maui, Makawao, HI 96768

Up Country MauiMakawao, HI 96768

Lat: 20.856944, Lon: -156.3149667

Elevation: 1500

Station Type: Davis Vantage Pro

www.dwayneyamato@hawaiiantel.net

High Low Average
Temperature 79.0°F26.1°F 62.2°F16.8°F 69.7°F20.9°F
Dew Point 70.5°F21.4°F 60.5°F15.8°F 65.2°F18.4°F
Winds 4.6 mph E7.4 mph E Calm Calm 1.2 mph 1.9 mph
Wind Gusts 11.5 mph18.5 mph -- 2.9 mph4.7 mph
Humidity 95% 75% 86%
Pressure 30.03 in1016.90 in 29.97 in1014.90 in -
Precipitation 0.08 in2.00 in - -
Hour Temp Dew Point Humidity Winds Wind Gusts Pressure Precip Precip Rate Daily Precip Total
12:00 AM 65.0°F18.3°C 63.2°F17.3°C 94% Calm Calm -- 30.03 in1016.9 mb - 0.00 in0.0 mm 0.00 in0.0 mm
01:00 AM 65.4°F18.6°C 63.3°F17.4°C 93% Calm Calm -- 30.02 in1016.6 mb - 0.00 in0.0 mm 0.00 in0.0 mm
02:00 AM 64.4°F18.0°C 62.4°F16.9°C 93% Calm Calm -- 30.00 in1015.9 mb - 0.00 in0.0 mm 0.00 in0.0 mm
03:00 AM 63.8°F17.7°C 61.7°F16.5°C 93% Calm Calm -- 29.98 in1015.2 mb - 0.00 in0.0 mm 0.00 in0.0 mm
04:00 AM 63.1°F17.3°C 61.0°F16.1°C 93% Calm Calm -- 29.99 in1015.6 mb - 0.00 in0.0 mm 0.00 in0.0 mm
05:00 AM 62.3°F16.8°C 60.5°F15.8°C 94% Calm Calm -- 30.00 in1015.9 mb - 0.00 in0.0 mm 0.00 in0.0 mm
06:00 AM 62.2°F16.8°C 60.8°F16.0°C 95% Calm Calm -- 30.01 in1016.3 mb - 0.00 in0.0 mm 0.00 in0.0 mm
07:00 AM 64.1°F17.8°C 62.6°F17.0°C 95% Calm Calm -- 30.03 in1016.9 mb - 0.00 in0.0 mm 0.00 in0.0 mm
08:00 AM 70.3°F21.3°C 65.6°F18.7°C 85% Calm Calm -- 30.02 in1016.6 mb - 0.00 in0.0 mm 0.00 in0.0 mm
09:00 AM 76.0°F24.4°C 67.9°F19.9°C 76% Calm Calm -- 30.03 in1016.9 mb - 0.00 in0.0 mm 0.00 in0.0 mm
10:00 AM 79.0°F26.1°C 70.4°F21.3°C 75% 1.2 mph ENE1.9 kmh ENE 3.5 mph5.6 kmh 30.02 in1016.6 mb - 0.00 in0.0 mm 0.00 in0.0 mm
11:00 AM 76.4°F24.7°C 70.1°F21.2°C 81% 4.6 mph E7.4 kmh E 11.5 mph18.5 kmh 30.02 in1016.6 mb - 0.00 in0.0 mm 0.00 in0.0 mm
12:00 PM 72.4°F22.4°C 69.3°F20.7°C 90% 2.3 mph ENE3.7 kmh ENE 4.6 mph7.4 kmh 30.01 in1016.3 mb - 0.04 in1.0 mm 0.04 in1.0 mm
01:00 PM 74.5°F23.6°C 70.1°F21.2°C 86% 4.6 mph ENE7.4 kmh ENE 6.9 mph11.1 kmh 30.00 in1015.9 mb - 0.03 in0.8 mm 0.07 in1.8 mm
02:00 PM 75.3°F24.1°C 70.5°F21.4°C 85% 2.3 mph E3.7 kmh E 6.9 mph11.1 kmh 29.98 in1015.2 mb - 0.00 in0.0 mm 0.07 in1.8 mm
03:00 PM 73.5°F23.1°C 68.7°F20.4°C 85% Calm Calm -- 29.98 in1015.2 mb - 0.01 in0.3 mm 0.08 in2.0 mm
04:00 PM 73.2°F22.9°C 68.1°F20.1°C 84% Calm Calm 3.5 mph5.6 kmh 29.97 in1014.9 mb - 0.00 in0.0 mm 0.08 in2.0 mm
05:00 PM 73.6°F23.1°C 68.2°F20.1°C 83% 1.2 mph E1.9 kmh E 3.5 mph5.6 kmh 29.97 in1014.9 mb - 0.00 in0.0 mm 0.08 in2.0 mm
06:00 PM 71.9°F22.2°C 66.5°F19.2°C 83% 4.6 mph E7.4 kmh E 9.2 mph14.8 kmh 29.98 in1015.2 mb - 0.00 in0.0 mm 0.08 in2.0 mm
07:00 PM 71.2°F21.8°C 64.7°F18.2°C 80% 1.2 mph ESE1.9 kmh ESE 5.8 mph9.3 kmh 30.00 in1015.9 mb - 0.00 in0.0 mm 0.08 in2.0 mm
08:00 PM 69.2°F20.7°C 62.8°F17.1°C 80% 3.5 mph E5.6 kmh E 6.9 mph11.1 kmh 30.00 in1015.9 mb - 0.00 in0.0 mm 0.08 in2.0 mm
09:00 PM 69.7°F20.9°C 61.8°F16.6°C 76% 2.3 mph E3.7 kmh E 8.1 mph13.0 kmh 30.02 in1016.6 mb - 0.00 in0.0 mm 0.08 in2.0 mm
10:00 PM 69.5°F20.8°C 62.7°F17.1°C 79% Calm Calm -- 30.03 in1016.9 mb - 0.00 in0.0 mm 0.08 in2.0 mm
11:00 PM 66.7°F19.3°C 63.0°F17.2°C 88% Calm Calm -- 30.02 in1016.6 mb - 0.00 in0.0 mm 0.08 in2.0 mm